Latest Weather Observations for Evans Head

IDN60801

Issued at 7:44 pm EDT Friday 30 January 2015 (issued every 30 minutes, with the page automatically refreshed every 10 minutes)

About weather observations | Map of weather stations | Latest weather observations for NSW | Other Formats
Station Details ID: 058212 Name: EVANS HEAD RAAF BOMBING RANGE AWS Lat: -29.18 Lon: 153.40 Height: 62.5 m
Data from the previous 72 hours. | See also: Recent months at Evans Head
Date/Time
EDT
Temp
°C
App
Temp
°C
Dew
Point
Rel
Hum
%
Delta-T
°C
Wind Press
QNH
hPa
Press
MSL
hPa
Rain
since 9 am
mm
Dir
 
Spd
km/h
Gust
km/h
Spd
kts
Gust
kts
30/07:30pm 23.7 23.2 19.2 76 2.9 N 20 32 11 17 1005.3 1005.0 0.0
30/07:00pm 24.6 24.5 19.9 75 3.1 N 20 30 11 16 1005.1 1004.8 0.0
30/06:30pm 25.4 24.9 20.0 72 3.5 NNE 22 35 12 19 1004.8 1004.5 0.0
30/06:00pm 24.9 25.0 19.9 74 3.3 N 19 32 10 17 1004.6 1004.3 0.0
30/05:30pm 26.6 25.8 20.0 67 4.3 NNE 24 41 13 22 1004.5 1004.2 0.0
30/05:00pm 25.6 25.3 19.5 69 4.0 NNE 20 33 11 18 1004.8 1004.5 0.0
30/04:31pm 26.5 24.4 18.9 63 4.9 N 28 46 15 25 1005.1 1004.8 0.0
30/04:30pm 26.3 23.6 18.4 61 5.0 N 30 46 16 25 1005.1 1004.8 0.0
30/04:24pm 27.0 24.8 18.6 60 5.4 NNE 28 46 15 25 1005.1 1004.8 0.0
30/04:00pm 27.5 26.3 18.5 58 5.8 NNE 22 37 12 20 1005.5 1005.2 0.0
30/03:30pm 28.1 27.8 19.6 60 5.6 NNE 20 37 11 20 1005.8 1005.5 0.0
30/03:00pm 26.3 25.3 17.9 60 5.3 NNE 20 33 11 18 1006.2 1005.9 0.0
30/02:30pm 27.5 26.6 18.2 57 5.9 NNE 20 35 11 19 1006.7 1006.4 0.0
30/02:00pm 26.4 25.5 17.7 58 5.5 NE 19 30 10 16 1007.1 1006.8 0.0
30/01:30pm 27.5 27.4 18.8 59 5.6 NE 17 30 9 16 1007.5 1007.2 0.0
30/01:00pm 27.4 27.8 18.1 57 5.9 NE 13 24 7 13 1007.9 1007.6 0.0
30/12:30pm 27.0 27.3 18.0 58 5.7 NE 13 24 7 13 1008.4 1008.1 0.0
30/12:00pm 24.9 24.5 16.1 58 5.4 E 13 20 7 11 1008.7 1008.4 0.0
30/11:30am 26.1 26.1 17.2 58 5.6 E 13 19 7 10 1009.1 1008.8 0.0
30/11:00am 25.1 24.3 15.1 53 6.0 ESE 13 19 7 10 1009.2 1008.9 0.0
30/10:30am 25.2 25.2 15.2 54 6.0 ESE 9 15 5 8 1009.4 1009.1 0.0
30/10:00am 24.4 25.0 14.2 53 6.0 SE 4 11 2 6 1009.4 1009.1 0.0
30/09:30am 24.2 24.5 14.6 55 5.7 SE 6 13 3 7 1009.7 1009.4 0.0
30/09:00am 22.8 22.9 13.8 57 5.3 SSW 6 9 3 5 1009.8 1009.5 0.8
30/08:30am 21.7 21.7 13.6 60 4.7 SSW 6 11 3 6 1009.9 1009.6 0.8
30/08:00am 20.9 20.5 14.1 65 4.0 SSW 9 13 5 7 1009.8 1009.5 0.8
30/07:30am 19.9 19.6 14.3 70 3.3 SW 9 11 5 6 1009.6 1009.3 0.8
30/07:00am 18.5 17.9 15.6 83 1.7 SW 13 15 7 8 1009.4 1009.1 0.8
30/06:30am 17.6 17.1 17.0 96 0.4 SSW 15 19 8 10 1009.2 1008.9 0.8
30/06:00am 18.0 17.4 15.6 86 1.4 SSW 13 17 7 9 1008.9 1008.6 0.8
30/05:30am 18.5 18.0 15.9 85 1.5 SSW 13 17 7 9 1008.8 1008.5 0.8
30/05:00am 18.5 18.8 16.1 86 1.4 SW 9 11 5 6 1008.9 1008.6 0.8
30/04:30am 18.9 19.1 16.7 87 1.3 SSW 11 15 6 8 1009.1 1008.8 0.8
30/04:00am 19.2 19.1 17.0 87 1.3 SSW 13 17 7 9 1009.1 1008.8 0.8
30/03:30am 19.5 19.8 17.1 86 1.5 SSW 11 15 6 8 1009.3 1009.0 0.8
30/03:00am 19.7 19.8 17.5 87 1.4 SSW 13 17 7 9 1009.5 1009.2 0.8
30/02:30am 20.0 20.9 17.6 86 1.5 SW 9 15 5 8 1009.8 1009.5 0.8
30/02:00am 20.6 20.6 17.2 81 2.1 S 13 19 7 10 1010.0 1009.7 0.8
30/01:30am 20.3 19.8 16.9 81 2.1 SE 15 20 8 11 1010.1 1009.8 0.8
30/01:00am 20.6 19.7 16.8 79 2.3 SE 17 22 9 12 1010.4 1010.1 0.8
30/12:30am 20.6 20.0 17.6 83 1.8 ESE 17 24 9 13 1010.5 1010.2 0.8
30/12:00am 19.9 20.0 18.4 91 0.9 E 15 20 8 11 1010.7 1010.4 0.8
 
Date/Time
EDT
Temp
°C
App
Temp
°C
Dew
Point
Rel
Hum
%
Delta-T
°C
Wind Press
QNH
hPa
Press
MSL
hPa
Rain
since 9 am
mm
Dir
 
Spd
km/h
Gust
km/h
Spd
kts
Gust
kts
29/11:30pm 19.4 19.4 18.1 92 0.8 ESE 15 20 8 11 1011.0 1010.7 0.8
29/11:00pm 19.6 19.3 16.4 82 1.9 ESE 13 19 7 10 1011.1 1010.8 0.6
29/10:30pm 21.8 20.5 15.9 69 3.6 ESE 17 28 9 15 1010.8 1010.5 0.0
29/10:00pm 22.5 20.4 14.6 61 4.7 ESE 19 28 10 15 1010.6 1010.3 0.0
29/09:30pm 22.8 20.6 14.9 61 4.7 ESE 20 30 11 16 1010.4 1010.1 0.0
29/09:00pm 22.7 20.1 14.8 61 4.7 ESE 22 32 12 17 1010.1 1009.8 0.0
29/08:30pm 22.7 20.5 15.0 61 4.6 SE 20 30 11 16 1010.1 1009.8 0.0
29/08:00pm 22.7 20.3 15.5 64 4.3 SE 22 33 12 18 1009.6 1009.3 0.0
29/07:30pm 22.7 21.0 16.3 67 3.9 SE 20 32 11 17 1009.2 1008.9 0.0
29/07:00pm 22.8 20.6 16.8 69 3.7 SE 24 32 13 17 1008.7 1008.4 0.0
29/06:30pm 23.5 21.7 17.0 67 4.0 SE 22 32 12 17 1008.4 1008.1 0.0
29/06:00pm 23.2 21.1 16.3 65 4.2 SE 22 33 12 18 1008.1 1007.8 0.0
29/05:30pm 24.5 22.7 17.0 63 4.6 SE 22 33 12 18 1007.8 1007.5 0.0
29/05:00pm 24.3 23.1 17.5 66 4.3 SE 20 30 11 16 1007.8 1007.5 0.0
29/04:30pm 25.9 25.0 18.3 63 4.8 SE 20 30 11 16 1007.8 1007.5 0.0
29/04:00pm 25.7 24.0 17.1 59 5.4 SE 22 32 12 17 1008.0 1007.7 0.0
29/03:30pm 26.1 23.8 17.7 60 5.3 SE 26 37 14 20 1008.0 1007.7 0.0
29/03:00pm 25.6 22.6 16.7 58 5.5 SE 28 39 15 21 1008.2 1007.9 0.0
29/02:30pm 25.1 21.6 15.4 55 5.9 SE 28 35 15 19 1008.2 1007.9 0.0
29/02:00pm 25.6 22.4 17.3 60 5.2 SE 30 39 16 21 1008.4 1008.1 0.0
29/01:30pm 25.5 22.7 17.4 61 5.1 SE 28 37 15 20 1008.8 1008.5 0.0
29/01:00pm 25.8 22.6 17.2 59 5.4 SE 30 39 16 21 1009.1 1008.8 0.0
29/12:30pm 25.3 21.9 16.7 59 5.3 SSE 30 39 16 21 1009.2 1008.9 0.0
29/12:00pm 25.3 21.8 15.6 55 5.9 SSE 28 39 15 21 1009.5 1009.2 0.0
29/11:30am 24.8 21.4 15.7 57 5.5 SSE 28 37 15 20 1009.6 1009.3 0.0
29/11:00am 24.4 22.6 16.1 60 5.1 SSE 20 35 11 19 1009.8 1009.5 0.0
29/10:30am 23.9 21.6 15.7 60 5.0 SSE 22 30 12 16 1009.8 1009.5 0.0
29/10:00am 23.0 19.9 15.6 63 4.5 S 26 35 14 19 1009.8 1009.5 0.0
29/09:30am 22.4 19.1 15.0 63 4.4 SSE 26 37 14 20 1009.8 1009.5 0.0
29/09:00am 22.0 19.0 14.9 64 4.2 S 24 35 13 19 1009.6 1009.3 1.8
29/08:30am 21.4 18.5 15.0 67 3.8 S 24 37 13 20 1009.4 1009.1 1.8
29/08:00am 20.1 17.8 14.0 68 3.5 SSW 19 28 10 15 1009.2 1008.9 1.8
29/07:30am 18.7 15.1 13.1 70 3.2 SSW 24 35 13 19 1008.8 1008.5 1.8
29/07:00am 17.6 14.3 12.7 73 2.7 SSW 22 33 12 18 1008.8 1008.5 1.8
29/06:30am 17.4 14.6 12.5 73 2.7 SW 19 26 10 14 1008.5 1008.2 1.8
29/06:00am 17.5 14.6 12.4 72 2.8 SW 19 22 10 12 1008.2 1007.9 1.8
29/05:30am 17.5 14.7 12.6 73 2.7 SW 19 24 10 13 1007.9 1007.6 1.8
29/05:00am 17.6 15.2 12.7 73 2.7 SW 17 22 9 12 1007.8 1007.5 1.8
29/04:30am 17.5 15.1 12.8 74 2.6 SW 17 24 9 13 1007.7 1007.4 1.8
29/04:00am 17.7 16.0 13.6 77 2.3 SW 15 20 8 11 1007.7 1007.4 1.8
29/03:30am 17.4 15.5 14.3 82 1.8 SW 17 22 9 12 1007.7 1007.4 1.8
29/03:00am 17.7 15.5 14.4 81 1.9 SSW 19 22 10 12 1007.8 1007.5 1.8
29/02:30am 17.9 16.2 14.6 81 1.9 SW 17 22 9 12 1008.0 1007.7 1.8
29/02:00am 18.5 16.1 14.4 77 2.4 SSW 20 28 11 15 1008.2 1007.9 1.8
29/01:30am 18.4 16.7 14.7 79 2.2 SSW 17 24 9 13 1008.6 1008.3 1.8
29/01:00am 18.9 15.8 14.6 76 2.5 SSW 24 33 13 18 1008.7 1008.4 1.8
29/12:30am 18.9 15.9 14.8 77 2.4 S 24 33 13 18 1008.7 1008.4 1.8
29/12:00am 19.2 16.3 15.1 77 2.4 SSW 24 32 13 17 1008.8 1008.5 1.8
 
Date/Time
EDT
Temp
°C
App
Temp
°C
Dew
Point
Rel
Hum
%
Delta-T
°C
Wind Press
QNH
hPa
Press
MSL
hPa
Rain
since 9 am
mm
Dir
 
Spd
km/h
Gust
km/h
Spd
kts
Gust
kts
28/11:30pm 19.4 16.7 15.5 78 2.3 SSW 24 32 13 17 1009.0 1008.7 1.8
28/11:00pm 19.8 17.1 15.7 77 2.4 S 24 35 13 19 1009.2 1008.9 1.8
28/10:30pm 19.9 17.5 15.5 76 2.6 S 22 33 12 18 1009.2 1008.9 1.8
28/10:00pm 19.7 17.6 16.2 80 2.1 S 22 32 12 17 1009.2 1008.9 1.8
28/09:30pm 20.1 18.6 16.7 81 2.1 S 20 30 11 16 1009.0 1008.7 1.8
28/09:00pm 20.3 18.9 16.9 81 2.1 S 20 32 11 17 1008.8 1008.5 1.8
28/08:30pm 20.8 18.8 17.4 81 2.1 S 24 35 13 19 1008.4 1008.1 1.8
28/08:00pm 21.2 19.0 17.8 81 2.1 S 26 43 14 23 1008.2 1007.9 1.8
28/07:42pm 21.4 18.1 18.0 81 2.1 S 32 50 17 27 1008.2 1007.9 1.8
28/07:30pm 21.7 18.5 18.5 82 2.0 S 33 50 18 27 1008.0 1007.7 1.8
28/07:26pm 21.6 18.7 18.8 84 1.8 S 32 50 17 27 1008.0 1007.7 1.8
28/07:00pm 20.8 20.1 20.3 97 0.3 SSE 24 35 13 19 1007.8 1007.5 1.8
28/06:30pm 22.9 20.8 18.9 78 2.5 S 28 39 15 21 1007.4 1007.1 1.8
28/06:00pm 21.2 20.6 19.8 92 0.9 SSE 22 32 12 17 1007.5 1007.2 1.8
28/05:30pm 21.9 20.4 19.5 86 1.5 S 26 37 14 20 1007.2 1006.9 1.6
28/05:00pm 21.8 19.7 20.6 93 0.8 S 32 48 17 26 1007.0 1006.7 1.6
28/04:50pm 21.5 19.9 20.7 95 0.5 S 30 48 16 26 1007.1 1006.8 1.6
28/04:30pm 20.9 21.1 20.6 98 0.2 S 20 32 11 17 1007.4 1007.1 1.6
28/04:00pm 20.3 17.9 20.0 98 0.2 S 32 44 17 24 1007.6 1007.3 1.6
28/03:44pm 20.4 18.5 20.1 98 0.2 S 30 48 16 26 1007.6 1007.3 1.6
28/03:30pm 20.3 19.5 20.1 99 0.1 S 24 33 13 18 1007.6 1007.3 1.6
28/03:00pm 20.1 18.0 19.8 98 0.2 SSE 30 43 16 23 1007.7 1007.4 1.4
28/02:30pm 21.7 18.6 21.2 97 0.3 SSE 39 57 21 31 1007.4 1007.1 1.4
28/02:12pm 22.0 20.8 21.5 97 0.3 S 30 48 16 26 1007.4 1007.1 1.4
28/02:00pm 21.9 21.9 21.6 98 0.2 S 24 35 13 19 1007.4 1007.1 1.4
28/01:30pm 21.0 21.3 20.7 98 0.2 SSE 20 33 11 18 1007.9 1007.6 1.4
28/01:00pm 21.2 21.7 20.9 98 0.2 SSE 19 28 10 15 1008.0 1007.7 1.4
28/12:30pm 21.1 22.0 20.8 98 0.2 S 17 28 9 15 1008.0 1007.7 1.2
28/12:00pm 20.5 22.3 20.3 99 0.1 S 11 20 6 11 1008.2 1007.9 1.2
28/11:30am 20.0 20.8 19.8 99 0.1 S 15 19 8 10 1008.4 1008.1 1.0
28/11:00am 20.0 21.2 19.8 99 0.1 S 13 20 7 11 1008.4 1008.1 0.6
28/10:30am 19.9 21.0 19.6 98 0.2 S 13 20 7 11 1008.1 1007.8 0.2
28/10:00am 20.1 20.1 19.8 98 0.2 S 19 28 10 15 1007.9 1007.6 0.0
28/09:30am 19.9 20.2 19.6 98 0.2 SSW 17 28 9 15 1007.6 1007.3 0.0
28/09:00am 18.7 18.5 18.5 99 0.1 SSW 17 24 9 13 1007.5 1007.2 17.0
28/08:30am 18.0 17.5 17.8 99 0.1 SSW 17 24 9 13 1007.4 1007.1 17.0
28/08:00am 17.6 16.9 17.4 99 0.1 SW 17 22 9 12 1007.3 1007.0 17.0
28/07:30am 17.3 16.1 17.1 99 0.1 SSW 19 26 10 14 1007.3 1007.0 17.0
28/07:00am 17.3 15.9 17.1 99 0.1 SW 20 28 11 15 1006.9 1006.6 17.0
28/06:30am 17.4 17.0 17.2 99 0.1 SW 15 22 8 12 1006.5 1006.2 17.0
28/06:00am 17.4 16.6 17.2 99 0.1 SSW 17 24 9 13 1006.1 1005.8 16.8
28/05:30am 17.4 17.4 17.2 99 0.1 SSW 13 20 7 11 1006.1 1005.8 16.6
28/05:00am 17.3 16.1 17.1 99 0.1 SSW 19 32 10 17 1005.9 1005.6 16.0
28/04:30am 17.1 16.2 16.9 99 0.1 SW 17 22 9 12 1006.5 1006.2 14.8
28/04:00am 17.1 16.2 16.9 99 0.1 SW 17 24 9 13 1006.9 1006.6 14.2
28/03:30am 17.1 16.6 16.9 99 0.1 SSW 15 22 8 12 1006.9 1006.6 14.0
28/03:00am 17.2 16.4 17.0 99 0.1 SSW 17 24 9 13 1007.3 1007.0 13.8
28/02:30am 17.3 15.9 17.1 99 0.1 SSW 20 32 11 17 1007.8 1007.5 13.2
28/02:00am 17.4 16.3 17.2 99 0.1 SSW 19 24 10 13 1008.5 1008.2 11.8
28/01:30am 17.4 15.3 17.2 99 0.1 SSW 24 37 13 20 1009.0 1008.7 10.2
28/01:00am 17.8 16.3 17.6 99 0.1 S 22 33 12 18 1009.1 1008.8 8.8
28/12:30am 18.4 16.4 18.2 99 0.1 SSW 26 37 14 20 1009.4 1009.1 7.8
28/12:00am 19.2 17.9 19.0 99 0.1 S 24 37 13 20 1009.5 1009.2 6.4
 
Date/Time
EDT
Temp
°C
App
Temp
°C
Dew
Point
Rel
Hum
%
Delta-T
°C
Wind Press
QNH
hPa
Press
MSL
hPa
Rain
since 9 am
mm
Dir
 
Spd
km/h
Gust
km/h
Spd
kts
Gust
kts
27/11:30pm 19.5 16.2 19.2 98 0.2 SSE 35 54 19 29 1009.1 1008.8 4.4
27/11:01pm 20.1 17.6 19.8 98 0.2 SE 32 50 17 27 1009.4 1009.1 2.6
27/11:00pm 20.0 17.3 19.7 98 0.2 SE 33 50 18 27 1009.4 1009.1 2.6
27/10:52pm 20.2 17.8 19.9 98 0.2 SE 32 50 17 27 1009.6 1009.3 2.2
27/10:30pm 20.6 18.7 20.1 97 0.3 SE 30 39 16 21 1009.9 1009.6 1.4
27/10:00pm 21.5 19.2 19.4 88 1.3 SE 30 46 16 25 1009.3 1009.0 0.4
27/09:30pm 21.5 18.9 20.0 91 1.0 SE 33 46 18 25 1008.7 1008.4 0.4
27/09:00pm 21.2 19.5 20.5 96 0.5 SE 30 39 16 21 1008.4 1008.1 0.4
27/08:30pm 21.1 19.3 20.4 96 0.5 SE 30 39 16 21 1008.2 1007.9 0.4
27/08:00pm 22.1 21.4 19.5 85 1.7 SE 22 32 12 17 1008.2 1007.9 0.0

Other Formats:

Comma delimited format used in spreadsheet applications
http://www.bom.gov.au/fwo/IDN60801/IDN60801.94598.axf

JavaScript Object Notation format (JSON) in row-major order
http://www.bom.gov.au/fwo/IDN60801/IDN60801.94598.json